sensor_id;sensor_type;location;lat;lon;timestamp;P1;durP1;ratioP1;P2;durP2;ratioP2
67747;SDS011;54543;50.712;6.070;2024-03-02T00:01:51;2.72;;;1.70;;
67747;SDS011;54543;50.712;6.070;2024-03-02T00:04:17;3.30;;;2.05;;
67747;SDS011;54543;50.712;6.070;2024-03-02T00:06:42;2.70;;;1.27;;
67747;SDS011;54543;50.712;6.070;2024-03-02T00:09:08;2.60;;;1.63;;
67747;SDS011;54543;50.712;6.070;2024-03-02T00:11:36;2.47;;;1.35;;
67747;SDS011;54543;50.712;6.070;2024-03-02T00:14:02;2.97;;;1.80;;
67747;SDS011;54543;50.712;6.070;2024-03-02T00:16:31;2.40;;;1.58;;
67747;SDS011;54543;50.712;6.070;2024-03-02T00:19:06;3.88;;;1.73;;
67747;SDS011;54543;50.712;6.070;2024-03-02T00:21:32;3.97;;;1.90;;
67747;SDS011;54543;50.712;6.070;2024-03-02T00:23:58;3.20;;;1.70;;
67747;SDS011;54543;50.712;6.070;2024-03-02T00:26:25;3.55;;;1.52;;
67747;SDS011;54543;50.712;6.070;2024-03-02T00:28:52;1.98;;;1.35;;
67747;SDS011;54543;50.712;6.070;2024-03-02T00:31:20;3.42;;;1.70;;
67747;SDS011;54543;50.712;6.070;2024-03-02T00:33:47;2.00;;;1.20;;
67747;SDS011;54543;50.712;6.070;2024-03-02T00:36:14;2.20;;;1.40;;
67747;SDS011;54543;50.712;6.070;2024-03-02T00:39:00;2.83;;;1.45;;
67747;SDS011;54543;50.712;6.070;2024-03-02T00:41:29;1.85;;;1.38;;
67747;SDS011;54543;50.712;6.070;2024-03-02T00:44:05;1.58;;;1.25;;
67747;SDS011;54543;50.712;6.070;2024-03-02T00:46:34;2.15;;;1.10;;
67747;SDS011;54543;50.712;6.070;2024-03-02T00:49:00;3.10;;;1.33;;
67747;SDS011;54543;50.712;6.070;2024-03-02T00:51:27;1.80;;;0.90;;
67747;SDS011;54543;50.712;6.070;2024-03-02T00:53:55;5.28;;;2.03;;
67747;SDS011;54543;50.712;6.070;2024-03-02T00:56:25;4.30;;;1.30;;
67747;SDS011;54543;50.712;6.070;2024-03-02T00:58:51;1.95;;;1.27;;
67747;SDS011;54543;50.712;6.070;2024-03-02T01:01:17;2.42;;;1.30;;
67747;SDS011;54543;50.712;6.070;2024-03-02T01:03:44;1.88;;;1.13;;
67747;SDS011;54543;50.712;6.070;2024-03-02T01:06:10;4.32;;;1.80;;
67747;SDS011;54543;50.712;6.070;2024-03-02T01:08:36;1.83;;;1.02;;
67747;SDS011;54543;50.712;6.070;2024-03-02T01:11:02;2.50;;;1.00;;
67747;SDS011;54543;50.712;6.070;2024-03-02T01:13:28;3.22;;;1.30;;
67747;SDS011;54543;50.712;6.070;2024-03-02T01:15:54;1.23;;;0.93;;
67747;SDS011;54543;50.712;6.070;2024-03-02T01:18:20;2.38;;;1.30;;
67747;SDS011;54543;50.712;6.070;2024-03-02T01:20:47;2.35;;;1.17;;
67747;SDS011;54543;50.712;6.070;2024-03-02T01:23:13;2.60;;;1.10;;
67747;SDS011;54543;50.712;6.070;2024-03-02T01:25:38;1.50;;;1.15;;
67747;SDS011;54543;50.712;6.070;2024-03-02T01:28:04;2.00;;;1.10;;
67747;SDS011;54543;50.712;6.070;2024-03-02T01:30:30;3.63;;;1.13;;
67747;SDS011;54543;50.712;6.070;2024-03-02T01:32:55;2.10;;;1.20;;
67747;SDS011;54543;50.712;6.070;2024-03-02T01:35:21;2.92;;;1.40;;
67747;SDS011;54543;50.712;6.070;2024-03-02T01:37:47;2.70;;;1.27;;
67747;SDS011;54543;50.712;6.070;2024-03-02T01:40:12;2.40;;;1.25;;
67747;SDS011;54543;50.712;6.070;2024-03-02T01:42:38;2.33;;;1.33;;
67747;SDS011;54543;50.712;6.070;2024-03-02T01:45:05;2.92;;;1.17;;
67747;SDS011;54543;50.712;6.070;2024-03-02T01:47:31;1.63;;;1.13;;
67747;SDS011;54543;50.712;6.070;2024-03-02T01:49:57;1.90;;;1.30;;
67747;SDS011;54543;50.712;6.070;2024-03-02T01:52:23;1.55;;;1.13;;
67747;SDS011;54543;50.712;6.070;2024-03-02T01:54:49;2.13;;;1.30;;
67747;SDS011;54543;50.712;6.070;2024-03-02T01:57:15;2.00;;;1.30;;
67747;SDS011;54543;50.712;6.070;2024-03-02T01:59:40;3.03;;;1.42;;
67747;SDS011;54543;50.712;6.070;2024-03-02T02:02:06;3.85;;;0.90;;
67747;SDS011;54543;50.712;6.070;2024-03-02T02:04:32;2.88;;;1.00;;
67747;SDS011;54543;50.712;6.070;2024-03-02T02:06:58;1.30;;;0.93;;
67747;SDS011;54543;50.712;6.070;2024-03-02T02:09:24;1.90;;;0.98;;
67747;SDS011;54543;50.712;6.070;2024-03-02T02:11:50;2.78;;;0.90;;
67747;SDS011;54543;50.712;6.070;2024-03-02T02:14:16;1.00;;;0.90;;
67747;SDS011;54543;50.712;6.070;2024-03-02T02:16:42;1.10;;;1.00;;
67747;SDS011;54543;50.712;6.070;2024-03-02T02:19:08;0.50;;;0.50;;
67747;SDS011;54543;50.712;6.070;2024-03-02T02:21:34;0.95;;;0.80;;
67747;SDS011;54543;50.712;6.070;2024-03-02T02:24:00;1.23;;;0.60;;
67747;SDS011;54543;50.712;6.070;2024-03-02T02:26:28;1.08;;;0.70;;
67747;SDS011;54543;50.712;6.070;2024-03-02T02:28:54;3.35;;;0.60;;
67747;SDS011;54543;50.712;6.070;2024-03-02T02:31:19;0.68;;;0.50;;
67747;SDS011;54543;50.712;6.070;2024-03-02T02:33:45;0.40;;;0.40;;
67747;SDS011;54543;50.712;6.070;2024-03-02T02:36:10;0.52;;;0.50;;
67747;SDS011;54543;50.712;6.070;2024-03-02T02:38:37;0.80;;;0.50;;
67747;SDS011;54543;50.712;6.070;2024-03-02T02:41:06;0.80;;;0.57;;
67747;SDS011;54543;50.712;6.070;2024-03-02T02:43:32;0.50;;;0.50;;
67747;SDS011;54543;50.712;6.070;2024-03-02T02:45:58;0.50;;;0.50;;
67747;SDS011;54543;50.712;6.070;2024-03-02T02:48:23;1.23;;;0.70;;
67747;SDS011;54543;50.712;6.070;2024-03-02T02:50:49;3.13;;;1.30;;
67747;SDS011;54543;50.712;6.070;2024-03-02T02:53:14;0.70;;;0.70;;
67747;SDS011;54543;50.712;6.070;2024-03-02T02:55:40;1.27;;;0.98;;
67747;SDS011;54543;50.712;6.070;2024-03-02T02:58:06;1.85;;;1.25;;
67747;SDS011;54543;50.712;6.070;2024-03-02T03:00:32;2.38;;;1.30;;
67747;SDS011;54543;50.712;6.070;2024-03-02T03:02:58;2.67;;;1.08;;
67747;SDS011;54543;50.712;6.070;2024-03-02T03:05:24;2.67;;;1.67;;
67747;SDS011;54543;50.712;6.070;2024-03-02T03:07:49;1.00;;;0.90;;
67747;SDS011;54543;50.712;6.070;2024-03-02T03:10:15;1.25;;;0.95;;
67747;SDS011;54543;50.712;6.070;2024-03-02T03:12:42;1.95;;;0.70;;
67747;SDS011;54543;50.712;6.070;2024-03-02T03:15:08;3.03;;;1.50;;
67747;SDS011;54543;50.712;6.070;2024-03-02T03:17:35;1.05;;;0.80;;
67747;SDS011;54543;50.712;6.070;2024-03-02T03:20:02;2.20;;;1.40;;
67747;SDS011;54543;50.712;6.070;2024-03-02T03:22:29;1.88;;;1.42;;
67747;SDS011;54543;50.712;6.070;2024-03-02T03:24:56;2.70;;;1.52;;
67747;SDS011;54543;50.712;6.070;2024-03-02T03:27:22;8.07;;;4.28;;
67747;SDS011;54543;50.712;6.070;2024-03-02T03:29:47;3.00;;;2.10;;
67747;SDS011;54543;50.712;6.070;2024-03-02T03:32:13;2.92;;;2.00;;
67747;SDS011;54543;50.712;6.070;2024-03-02T03:34:38;2.83;;;1.80;;
67747;SDS011;54543;50.712;6.070;2024-03-02T03:37:04;4.00;;;2.08;;
67747;SDS011;54543;50.712;6.070;2024-03-02T03:39:30;3.65;;;2.40;;
67747;SDS011;54543;50.712;6.070;2024-03-02T03:41:56;3.83;;;1.85;;
67747;SDS011;54543;50.712;6.070;2024-03-02T03:44:22;2.47;;;1.35;;
67747;SDS011;54543;50.712;6.070;2024-03-02T03:46:47;3.47;;;1.70;;
67747;SDS011;54543;50.712;6.070;2024-03-02T03:49:13;5.03;;;2.45;;
67747;SDS011;54543;50.712;6.070;2024-03-02T03:51:39;2.92;;;1.85;;
67747;SDS011;54543;50.712;6.070;2024-03-02T03:54:04;5.60;;;3.30;;
67747;SDS011;54543;50.712;6.070;2024-03-02T03:56:30;4.32;;;2.10;;
67747;SDS011;54543;50.712;6.070;2024-03-02T03:58:55;6.15;;;3.20;;
67747;SDS011;54543;50.712;6.070;2024-03-02T04:01:21;4.40;;;2.30;;
67747;SDS011;54543;50.712;6.070;2024-03-02T04:03:47;15.68;;;7.13;;
67747;SDS011;54543;50.712;6.070;2024-03-02T04:06:13;6.05;;;3.40;;
67747;SDS011;54543;50.712;6.070;2024-03-02T04:08:41;4.38;;;2.50;;
67747;SDS011;54543;50.712;6.070;2024-03-02T04:11:07;8.80;;;4.43;;
67747;SDS011;54543;50.712;6.070;2024-03-02T04:13:33;8.90;;;4.65;;
67747;SDS011;54543;50.712;6.070;2024-03-02T04:15:58;6.00;;;3.65;;
67747;SDS011;54543;50.712;6.070;2024-03-02T04:18:24;9.63;;;5.22;;
67747;SDS011;54543;50.712;6.070;2024-03-02T04:20:49;4.53;;;2.90;;
67747;SDS011;54543;50.712;6.070;2024-03-02T04:23:15;10.25;;;5.55;;
67747;SDS011;54543;50.712;6.070;2024-03-02T04:25:40;9.73;;;5.38;;
67747;SDS011;54543;50.712;6.070;2024-03-02T04:28:06;8.35;;;4.47;;
67747;SDS011;54543;50.712;6.070;2024-03-02T04:30:31;12.70;;;7.03;;
67747;SDS011;54543;50.712;6.070;2024-03-02T04:32:57;11.52;;;5.68;;
67747;SDS011;54543;50.712;6.070;2024-03-02T04:35:23;11.07;;;6.60;;
67747;SDS011;54543;50.712;6.070;2024-03-02T04:37:48;12.82;;;6.18;;
67747;SDS011;54543;50.712;6.070;2024-03-02T04:40:14;10.32;;;5.82;;
67747;SDS011;54543;50.712;6.070;2024-03-02T04:42:39;8.75;;;4.65;;
67747;SDS011;54543;50.712;6.070;2024-03-02T04:45:05;9.50;;;5.40;;
67747;SDS011;54543;50.712;6.070;2024-03-02T04:47:31;7.88;;;4.28;;
67747;SDS011;54543;50.712;6.070;2024-03-02T04:49:57;8.50;;;4.22;;
67747;SDS011;54543;50.712;6.070;2024-03-02T04:52:22;5.97;;;3.40;;
67747;SDS011;54543;50.712;6.070;2024-03-02T04:54:47;5.68;;;3.20;;
67747;SDS011;54543;50.712;6.070;2024-03-02T04:57:31;4.03;;;2.65;;
67747;SDS011;54543;50.712;6.070;2024-03-02T04:59:57;4.13;;;2.47;;
67747;SDS011;54543;50.712;6.070;2024-03-02T05:02:22;3.95;;;2.35;;
67747;SDS011;54543;50.712;6.070;2024-03-02T05:04:48;6.43;;;3.45;;
67747;SDS011;54543;50.712;6.070;2024-03-02T05:07:14;6.18;;;3.13;;
67747;SDS011;54543;50.712;6.070;2024-03-02T05:09:39;5.10;;;2.67;;
67747;SDS011;54543;50.712;6.070;2024-03-02T05:12:05;7.82;;;3.65;;
67747;SDS011;54543;50.712;6.070;2024-03-02T05:14:49;4.90;;;3.00;;
67747;SDS011;54543;50.712;6.070;2024-03-02T05:17:15;6.18;;;2.83;;
67747;SDS011;54543;50.712;6.070;2024-03-02T05:19:41;4.68;;;2.33;;
67747;SDS011;54543;50.712;6.070;2024-03-02T05:22:06;5.45;;;2.80;;
67747;SDS011;54543;50.712;6.070;2024-03-02T05:24:32;3.53;;;1.90;;
67747;SDS011;54543;50.712;6.070;2024-03-02T05:26:57;2.20;;;1.35;;
67747;SDS011;54543;50.712;6.070;2024-03-02T05:29:23;2.03;;;1.23;;
67747;SDS011;54543;50.712;6.070;2024-03-02T05:31:48;3.28;;;1.95;;
67747;SDS011;54543;50.712;6.070;2024-03-02T05:34:14;2.53;;;1.60;;
67747;SDS011;54543;50.712;6.070;2024-03-02T05:36:39;3.75;;;1.70;;
67747;SDS011;54543;50.712;6.070;2024-03-02T05:39:05;3.05;;;1.70;;
67747;SDS011;54543;50.712;6.070;2024-03-02T05:41:35;3.92;;;2.75;;
67747;SDS011;54543;50.712;6.070;2024-03-02T05:44:01;5.28;;;3.58;;
67747;SDS011;54543;50.712;6.070;2024-03-02T05:46:27;8.20;;;4.85;;
67747;SDS011;54543;50.712;6.070;2024-03-02T05:48:53;26.83;;;13.40;;
67747;SDS011;54543;50.712;6.070;2024-03-02T05:51:18;14.63;;;7.95;;
67747;SDS011;54543;50.712;6.070;2024-03-02T05:53:44;17.42;;;9.15;;
67747;SDS011;54543;50.712;6.070;2024-03-02T05:56:09;11.15;;;7.20;;
67747;SDS011;54543;50.712;6.070;2024-03-02T05:58:35;12.95;;;8.02;;
67747;SDS011;54543;50.712;6.070;2024-03-02T06:01:18;11.90;;;6.95;;
67747;SDS011;54543;50.712;6.070;2024-03-02T06:03:44;13.40;;;7.45;;
67747;SDS011;54543;50.712;6.070;2024-03-02T06:06:09;13.10;;;7.15;;
67747;SDS011;54543;50.712;6.070;2024-03-02T06:08:35;6.70;;;3.63;;
67747;SDS011;54543;50.712;6.070;2024-03-02T06:11:01;7.22;;;3.47;;
67747;SDS011;54543;50.712;6.070;2024-03-02T06:13:27;5.57;;;3.10;;
67747;SDS011;54543;50.712;6.070;2024-03-02T06:15:52;8.38;;;4.78;;
67747;SDS011;54543;50.712;6.070;2024-03-02T06:18:18;5.38;;;3.03;;
67747;SDS011;54543;50.712;6.070;2024-03-02T06:20:44;7.35;;;4.45;;
67747;SDS011;54543;50.712;6.070;2024-03-02T06:23:09;4.15;;;2.10;;
67747;SDS011;54543;50.712;6.070;2024-03-02T06:25:35;7.07;;;3.65;;
67747;SDS011;54543;50.712;6.070;2024-03-02T06:28:00;7.45;;;3.85;;
67747;SDS011;54543;50.712;6.070;2024-03-02T06:30:26;7.60;;;4.57;;
67747;SDS011;54543;50.712;6.070;2024-03-02T06:32:52;6.05;;;3.67;;
67747;SDS011;54543;50.712;6.070;2024-03-02T06:35:17;9.40;;;5.25;;
67747;SDS011;54543;50.712;6.070;2024-03-02T06:37:43;5.35;;;3.05;;
67747;SDS011;54543;50.712;6.070;2024-03-02T06:40:08;6.10;;;3.53;;
67747;SDS011;54543;50.712;6.070;2024-03-02T06:42:35;6.93;;;3.65;;
67747;SDS011;54543;50.712;6.070;2024-03-02T06:45:01;4.88;;;2.63;;
67747;SDS011;54543;50.712;6.070;2024-03-02T06:47:27;3.67;;;2.25;;
67747;SDS011;54543;50.712;6.070;2024-03-02T06:49:53;3.33;;;1.90;;
67747;SDS011;54543;50.712;6.070;2024-03-02T06:52:19;3.15;;;2.15;;
67747;SDS011;54543;50.712;6.070;2024-03-02T06:54:45;3.15;;;1.83;;
67747;SDS011;54543;50.712;6.070;2024-03-02T06:57:11;4.75;;;2.17;;
67747;SDS011;54543;50.712;6.070;2024-03-02T06:59:37;6.85;;;3.83;;
67747;SDS011;54543;50.712;6.070;2024-03-02T07:02:02;4.00;;;2.40;;
67747;SDS011;54543;50.712;6.070;2024-03-02T07:04:28;5.47;;;3.05;;
67747;SDS011;54543;50.712;6.070;2024-03-02T07:06:54;3.65;;;2.00;;
67747;SDS011;54543;50.712;6.070;2024-03-02T07:09:20;2.75;;;1.67;;
67747;SDS011;54543;50.712;6.070;2024-03-02T07:11:48;4.63;;;2.40;;
67747;SDS011;54543;50.712;6.070;2024-03-02T07:14:14;7.07;;;3.25;;
67747;SDS011;54543;50.712;6.070;2024-03-02T07:16:40;3.63;;;2.22;;
67747;SDS011;54543;50.712;6.070;2024-03-02T07:19:06;5.38;;;2.72;;
67747;SDS011;54543;50.712;6.070;2024-03-02T07:21:31;3.95;;;1.88;;
67747;SDS011;54543;50.712;6.070;2024-03-02T07:23:58;7.05;;;2.45;;
67747;SDS011;54543;50.712;6.070;2024-03-02T07:26:24;4.15;;;1.73;;
67747;SDS011;54543;50.712;6.070;2024-03-02T07:28:50;3.15;;;1.63;;
67747;SDS011;54543;50.712;6.070;2024-03-02T07:31:16;4.68;;;2.47;;
67747;SDS011;54543;50.712;6.070;2024-03-02T07:33:43;4.20;;;2.50;;
67747;SDS011;54543;50.712;6.070;2024-03-02T07:36:10;2.42;;;1.75;;
67747;SDS011;54543;50.712;6.070;2024-03-02T07:38:36;6.82;;;5.45;;
67747;SDS011;54543;50.712;6.070;2024-03-02T07:41:01;7.68;;;5.05;;
67747;SDS011;54543;50.712;6.070;2024-03-02T07:43:29;8.02;;;4.97;;
67747;SDS011;54543;50.712;6.070;2024-03-02T07:45:56;8.00;;;4.97;;
67747;SDS011;54543;50.712;6.070;2024-03-02T07:48:22;5.68;;;3.03;;
67747;SDS011;54543;50.712;6.070;2024-03-02T07:50:48;6.53;;;3.47;;
67747;SDS011;54543;50.712;6.070;2024-03-02T07:53:13;6.53;;;3.60;;
67747;SDS011;54543;50.712;6.070;2024-03-02T07:55:39;5.95;;;3.30;;
67747;SDS011;54543;50.712;6.070;2024-03-02T07:58:06;4.68;;;3.35;;
67747;SDS011;54543;50.712;6.070;2024-03-02T08:00:32;3.90;;;2.35;;
67747;SDS011;54543;50.712;6.070;2024-03-02T08:02:57;18.33;;;9.30;;
67747;SDS011;54543;50.712;6.070;2024-03-02T08:05:23;14.43;;;12.63;;
67747;SDS011;54543;50.712;6.070;2024-03-02T08:07:49;8.02;;;6.45;;
67747;SDS011;54543;50.712;6.070;2024-03-02T08:10:17;6.63;;;5.05;;
67747;SDS011;54543;50.712;6.070;2024-03-02T08:12:43;5.03;;;4.03;;
67747;SDS011;54543;50.712;6.070;2024-03-02T08:15:09;4.88;;;4.22;;
67747;SDS011;54543;50.712;6.070;2024-03-02T08:17:35;5.65;;;3.92;;
67747;SDS011;54543;50.712;6.070;2024-03-02T08:20:00;4.05;;;2.50;;
67747;SDS011;54543;50.712;6.070;2024-03-02T08:22:27;3.55;;;2.55;;
67747;SDS011;54543;50.712;6.070;2024-03-02T08:24:52;3.67;;;2.40;;
67747;SDS011;54543;50.712;6.070;2024-03-02T08:27:18;2.97;;;2.00;;
67747;SDS011;54543;50.712;6.070;2024-03-02T08:29:44;3.83;;;2.28;;
67747;SDS011;54543;50.712;6.070;2024-03-02T08:32:09;2.85;;;2.00;;
67747;SDS011;54543;50.712;6.070;2024-03-02T08:34:35;3.58;;;2.00;;
67747;SDS011;54543;50.712;6.070;2024-03-02T08:37:01;3.72;;;1.70;;
67747;SDS011;54543;50.712;6.070;2024-03-02T08:39:27;2.65;;;1.48;;
67747;SDS011;54543;50.712;6.070;2024-03-02T08:41:53;3.05;;;1.95;;
67747;SDS011;54543;50.712;6.070;2024-03-02T08:44:19;2.40;;;1.77;;
67747;SDS011;54543;50.712;6.070;2024-03-02T08:46:45;3.45;;;2.00;;
67747;SDS011;54543;50.712;6.070;2024-03-02T08:49:11;1.95;;;1.20;;
67747;SDS011;54543;50.712;6.070;2024-03-02T08:51:37;2.40;;;1.75;;
67747;SDS011;54543;50.712;6.070;2024-03-02T08:54:03;3.10;;;2.40;;
67747;SDS011;54543;50.712;6.070;2024-03-02T08:56:29;2.33;;;1.75;;
67747;SDS011;54543;50.712;6.070;2024-03-02T08:58:56;1.63;;;1.40;;
67747;SDS011;54543;50.712;6.070;2024-03-02T09:01:21;2.25;;;1.75;;
67747;SDS011;54543;50.712;6.070;2024-03-02T09:03:47;1.73;;;1.17;;
67747;SDS011;54543;50.712;6.070;2024-03-02T09:06:14;1.23;;;1.02;;
67747;SDS011;54543;50.712;6.070;2024-03-02T09:08:42;2.58;;;1.73;;
67747;SDS011;54543;50.712;6.070;2024-03-02T09:11:08;2.50;;;1.60;;
67747;SDS011;54543;50.712;6.070;2024-03-02T09:13:35;1.88;;;1.20;;
67747;SDS011;54543;50.712;6.070;2024-03-02T09:16:01;2.83;;;1.63;;
67747;SDS011;54543;50.712;6.070;2024-03-02T09:18:27;1.55;;;0.85;;
67747;SDS011;54543;50.712;6.070;2024-03-02T09:20:53;1.77;;;1.20;;
67747;SDS011;54543;50.712;6.070;2024-03-02T09:23:19;1.88;;;1.02;;
67747;SDS011;54543;50.712;6.070;2024-03-02T09:25:44;2.17;;;1.10;;
67747;SDS011;54543;50.712;6.070;2024-03-02T09:28:10;2.30;;;1.15;;
67747;SDS011;54543;50.712;6.070;2024-03-02T09:30:35;1.52;;;0.93;;
67747;SDS011;54543;50.712;6.070;2024-03-02T09:33:01;2.38;;;1.10;;
67747;SDS011;54543;50.712;6.070;2024-03-02T09:35:26;2.58;;;1.00;;
67747;SDS011;54543;50.712;6.070;2024-03-02T09:37:52;2.05;;;0.82;;
67747;SDS011;54543;50.712;6.070;2024-03-02T09:40:18;1.80;;;1.00;;
67747;SDS011;54543;50.712;6.070;2024-03-02T09:42:47;1.92;;;1.00;;
67747;SDS011;54543;50.712;6.070;2024-03-02T09:45:18;0.80;;;0.80;;
67747;SDS011;54543;50.712;6.070;2024-03-02T09:47:48;1.25;;;0.80;;
67747;SDS011;54543;50.712;6.070;2024-03-02T09:50:14;1.58;;;1.10;;
67747;SDS011;54543;50.712;6.070;2024-03-02T09:52:40;2.22;;;1.00;;
67747;SDS011;54543;50.712;6.070;2024-03-02T09:55:08;3.00;;;1.00;;
67747;SDS011;54543;50.712;6.070;2024-03-02T09:57:33;2.55;;;1.08;;
67747;SDS011;54543;50.712;6.070;2024-03-02T09:59:59;3.08;;;0.98;;
67747;SDS011;54543;50.712;6.070;2024-03-02T10:02:25;1.65;;;1.10;;
67747;SDS011;54543;50.712;6.070;2024-03-02T10:04:50;1.25;;;1.05;;
67747;SDS011;54543;50.712;6.070;2024-03-02T10:07:16;1.77;;;0.80;;
67747;SDS011;54543;50.712;6.070;2024-03-02T10:09:47;0.70;;;0.60;;
67747;SDS011;54543;50.712;6.070;2024-03-02T10:12:14;3.35;;;1.42;;
67747;SDS011;54543;50.712;6.070;2024-03-02T10:14:41;1.30;;;0.90;;
67747;SDS011;54543;50.712;6.070;2024-03-02T10:17:08;1.92;;;0.95;;
67747;SDS011;54543;50.712;6.070;2024-03-02T10:19:35;0.63;;;0.50;;
67747;SDS011;54543;50.712;6.070;2024-03-02T10:22:05;2.33;;;0.95;;
67747;SDS011;54543;50.712;6.070;2024-03-02T10:27:17;2.97;;;1.20;;
67747;SDS011;54543;50.712;6.070;2024-03-02T10:29:47;4.07;;;1.10;;
67747;SDS011;54543;50.712;6.070;2024-03-02T10:32:14;5.00;;;1.92;;
67747;SDS011;54543;50.712;6.070;2024-03-02T10:34:41;5.22;;;1.73;;
67747;SDS011;54543;50.712;6.070;2024-03-02T10:37:08;7.88;;;2.70;;
67747;SDS011;54543;50.712;6.070;2024-03-02T10:39:35;3.30;;;1.88;;
67747;SDS011;54543;50.712;6.070;2024-03-02T10:42:04;5.07;;;1.80;;
67747;SDS011;54543;50.712;6.070;2024-03-02T10:44:31;4.53;;;1.85;;
67747;SDS011;54543;50.712;6.070;2024-03-02T10:46:59;4.68;;;1.83;;
67747;SDS011;54543;50.712;6.070;2024-03-02T10:49:29;3.78;;;1.55;;
67747;SDS011;54543;50.712;6.070;2024-03-02T10:51:55;2.58;;;1.40;;
67747;SDS011;54543;50.712;6.070;2024-03-02T10:54:21;1.33;;;1.10;;
67747;SDS011;54543;50.712;6.070;2024-03-02T10:56:51;2.75;;;1.48;;
67747;SDS011;54543;50.712;6.070;2024-03-02T11:01:57;2.75;;;1.55;;
67747;SDS011;54543;50.712;6.070;2024-03-02T11:04:28;2.88;;;1.42;;
67747;SDS011;54543;50.712;6.070;2024-03-02T11:06:56;2.20;;;1.50;;
67747;SDS011;54543;50.712;6.070;2024-03-02T11:09:35;2.97;;;1.95;;
67747;SDS011;54543;50.712;6.070;2024-03-02T11:12:06;2.47;;;1.33;;
67747;SDS011;54543;50.712;6.070;2024-03-02T11:14:38;2.20;;;1.05;;
67747;SDS011;54543;50.712;6.070;2024-03-02T11:17:08;2.35;;;1.30;;
67747;SDS011;54543;50.712;6.070;2024-03-02T11:19:35;1.52;;;1.10;;
67747;SDS011;54543;50.712;6.070;2024-03-02T11:22:05;1.58;;;1.05;;
67747;SDS011;54543;50.712;6.070;2024-03-02T11:24:32;4.97;;;2.03;;
67747;SDS011;54543;50.712;6.070;2024-03-02T11:26:58;2.15;;;1.35;;
67747;SDS011;54543;50.712;6.070;2024-03-02T11:32:06;14.18;;;8.45;;
67747;SDS011;54543;50.712;6.070;2024-03-02T11:34:41;17.25;;;10.52;;
67747;SDS011;54543;50.712;6.070;2024-03-02T11:37:12;18.83;;;11.52;;
67747;SDS011;54543;50.712;6.070;2024-03-02T11:39:39;12.85;;;8.05;;
67747;SDS011;54543;50.712;6.070;2024-03-02T11:42:08;15.65;;;8.98;;
67747;SDS011;54543;50.712;6.070;2024-03-02T11:44:37;12.57;;;7.60;;
67747;SDS011;54543;50.712;6.070;2024-03-02T11:47:07;10.80;;;6.50;;
67747;SDS011;54543;50.712;6.070;2024-03-02T11:49:40;8.10;;;4.72;;
67747;SDS011;54543;50.712;6.070;2024-03-02T11:52:11;8.73;;;5.00;;
67747;SDS011;54543;50.712;6.070;2024-03-02T11:54:38;7.25;;;4.78;;
67747;SDS011;54543;50.712;6.070;2024-03-02T11:57:05;6.82;;;4.10;;
67747;SDS011;54543;50.712;6.070;2024-03-02T11:59:32;7.57;;;3.88;;
67747;SDS011;54543;50.712;6.070;2024-03-02T12:01:58;5.57;;;3.22;;
67747;SDS011;54543;50.712;6.070;2024-03-02T12:04:24;5.20;;;2.58;;
67747;SDS011;54543;50.712;6.070;2024-03-02T12:06:57;6.18;;;2.97;;
67747;SDS011;54543;50.712;6.070;2024-03-02T12:09:27;5.75;;;2.45;;
67747;SDS011;54543;50.712;6.070;2024-03-02T12:14:32;2.88;;;1.85;;
67747;SDS011;54543;50.712;6.070;2024-03-02T12:16:59;3.17;;;1.90;;
67747;SDS011;54543;50.712;6.070;2024-03-02T12:19:26;5.38;;;1.85;;
67747;SDS011;54543;50.712;6.070;2024-03-02T12:21:52;4.07;;;1.70;;
67747;SDS011;54543;50.712;6.070;2024-03-02T12:24:26;3.97;;;1.80;;
67747;SDS011;54543;50.712;6.070;2024-03-02T12:26:52;2.90;;;1.50;;
67747;SDS011;54543;50.712;6.070;2024-03-02T12:29:18;3.60;;;1.40;;
67747;SDS011;54543;50.712;6.070;2024-03-02T12:31:45;4.25;;;1.95;;
67747;SDS011;54543;50.712;6.070;2024-03-02T12:34:12;13.63;;;7.90;;
67747;SDS011;54543;50.712;6.070;2024-03-02T12:36:41;28.35;;;18.42;;
67747;SDS011;54543;50.712;6.070;2024-03-02T12:39:09;21.13;;;13.15;;
67747;SDS011;54543;50.712;6.070;2024-03-02T12:41:38;24.63;;;16.20;;
67747;SDS011;54543;50.712;6.070;2024-03-02T12:44:04;21.40;;;14.75;;
67747;SDS011;54543;50.712;6.070;2024-03-02T12:46:32;25.65;;;16.40;;
67747;SDS011;54543;50.712;6.070;2024-03-02T12:48:58;24.23;;;15.25;;
67747;SDS011;54543;50.712;6.070;2024-03-02T12:51:33;14.13;;;9.55;;
67747;SDS011;54543;50.712;6.070;2024-03-02T12:53:59;16.83;;;10.25;;
67747;SDS011;54543;50.712;6.070;2024-03-02T12:56:26;11.07;;;7.28;;
67747;SDS011;54543;50.712;6.070;2024-03-02T12:58:55;9.73;;;6.10;;
67747;SDS011;54543;50.712;6.070;2024-03-02T13:01:21;8.40;;;4.88;;
67747;SDS011;54543;50.712;6.070;2024-03-02T13:03:50;5.78;;;3.40;;
67747;SDS011;54543;50.712;6.070;2024-03-02T13:06:17;6.10;;;3.45;;
67747;SDS011;54543;50.712;6.070;2024-03-02T13:08:44;4.90;;;2.90;;
67747;SDS011;54543;50.712;6.070;2024-03-02T13:11:10;4.80;;;3.00;;
67747;SDS011;54543;50.712;6.070;2024-03-02T13:13:36;4.60;;;2.42;;
67747;SDS011;54543;50.712;6.070;2024-03-02T13:16:03;5.45;;;1.95;;
67747;SDS011;54543;50.712;6.070;2024-03-02T13:18:33;3.90;;;1.98;;
67747;SDS011;54543;50.712;6.070;2024-03-02T13:20:59;2.22;;;1.48;;
67747;SDS011;54543;50.712;6.070;2024-03-02T13:23:24;2.00;;;1.40;;
67747;SDS011;54543;50.712;6.070;2024-03-02T13:25:50;2.72;;;1.60;;
67747;SDS011;54543;50.712;6.070;2024-03-02T13:28:16;5.70;;;3.85;;
67747;SDS011;54543;50.712;6.070;2024-03-02T13:30:41;5.03;;;3.58;;
67747;SDS011;54543;50.712;6.070;2024-03-02T13:33:07;10.82;;;6.75;;
67747;SDS011;54543;50.712;6.070;2024-03-02T13:35:33;11.88;;;8.32;;
67747;SDS011;54543;50.712;6.070;2024-03-02T13:37:58;11.43;;;8.30;;
67747;SDS011;54543;50.712;6.070;2024-03-02T13:40:24;9.13;;;6.25;;
67747;SDS011;54543;50.712;6.070;2024-03-02T13:42:49;13.02;;;8.63;;
67747;SDS011;54543;50.712;6.070;2024-03-02T13:45:17;9.25;;;6.22;;
67747;SDS011;54543;50.712;6.070;2024-03-02T13:47:43;11.85;;;8.18;;
67747;SDS011;54543;50.712;6.070;2024-03-02T13:50:10;13.57;;;9.07;;
67747;SDS011;54543;50.712;6.070;2024-03-02T13:52:35;12.68;;;8.88;;
67747;SDS011;54543;50.712;6.070;2024-03-02T13:55:01;10.65;;;7.53;;
67747;SDS011;54543;50.712;6.070;2024-03-02T13:57:27;10.43;;;7.20;;
67747;SDS011;54543;50.712;6.070;2024-03-02T13:59:53;9.60;;;6.25;;
67747;SDS011;54543;50.712;6.070;2024-03-02T14:02:19;7.70;;;5.25;;
67747;SDS011;54543;50.712;6.070;2024-03-02T14:04:45;8.52;;;5.82;;
67747;SDS011;54543;50.712;6.070;2024-03-02T14:07:13;6.55;;;4.50;;
67747;SDS011;54543;50.712;6.070;2024-03-02T14:09:39;5.93;;;3.97;;
67747;SDS011;54543;50.712;6.070;2024-03-02T14:12:04;5.97;;;3.90;;
67747;SDS011;54543;50.712;6.070;2024-03-02T14:14:31;6.15;;;4.13;;
67747;SDS011;54543;50.712;6.070;2024-03-02T14:16:57;5.43;;;3.20;;
67747;SDS011;54543;50.712;6.070;2024-03-02T14:19:29;5.45;;;2.83;;
67747;SDS011;54543;50.712;6.070;2024-03-02T14:21:55;4.55;;;2.60;;
67747;SDS011;54543;50.712;6.070;2024-03-02T14:24:21;3.58;;;2.35;;
67747;SDS011;54543;50.712;6.070;2024-03-02T14:26:51;3.15;;;2.20;;
67747;SDS011;54543;50.712;6.070;2024-03-02T14:29:17;3.33;;;1.95;;
67747;SDS011;54543;50.712;6.070;2024-03-02T14:31:43;3.28;;;2.00;;
67747;SDS011;54543;50.712;6.070;2024-03-02T14:34:09;2.67;;;1.60;;
67747;SDS011;54543;50.712;6.070;2024-03-02T14:36:34;2.72;;;1.67;;
67747;SDS011;54543;50.712;6.070;2024-03-02T14:39:00;2.08;;;1.33;;
67747;SDS011;54543;50.712;6.070;2024-03-02T14:41:26;1.40;;;1.25;;
67747;SDS011;54543;50.712;6.070;2024-03-02T14:43:51;2.25;;;1.27;;
67747;SDS011;54543;50.712;6.070;2024-03-02T14:46:17;3.63;;;1.63;;
67747;SDS011;54543;50.712;6.070;2024-03-02T14:48:43;2.60;;;1.50;;
67747;SDS011;54543;50.712;6.070;2024-03-02T14:51:10;1.77;;;1.20;;
67747;SDS011;54543;50.712;6.070;2024-03-02T14:53:36;2.45;;;1.55;;